createdAt,value
2018-11-23T00:01:51.301Z,68.30
2018-11-23T00:04:39.059Z,68.00
2018-11-23T00:07:07.457Z,68.00
2018-11-23T00:09:36.156Z,68.00
2018-11-23T00:12:23.980Z,68.50
2018-11-23T00:15:30.896Z,68.40
2018-11-23T00:18:18.669Z,68.30
2018-11-23T00:20:47.073Z,68.10
2018-11-23T00:23:15.621Z,68.10
2018-11-23T00:26:03.504Z,68.30
2018-11-23T00:28:51.665Z,68.50
2018-11-23T00:31:20.433Z,68.30
2018-11-23T00:34:08.384Z,68.10
2018-11-23T00:36:36.988Z,68.10
2018-11-23T00:39:24.726Z,68.30
2018-11-23T00:42:12.736Z,68.20
2018-11-23T00:44:41.195Z,68.20
2018-11-23T00:47:29.098Z,68.30
2018-11-23T00:50:09.643Z,68.20
2018-11-23T00:52:38.566Z,67.90
2018-11-23T00:55:26.978Z,67.90
2018-11-23T00:58:14.713Z,68.10
2018-11-23T01:01:02.423Z,67.90
2018-11-23T01:03:30.774Z,68.20
2018-11-23T01:06:18.529Z,68.20
2018-11-23T01:14:46.893Z,67.20
2018-11-23T01:17:34.722Z,68.00
2018-11-23T01:20:03.273Z,68.60
2018-11-23T01:22:51.711Z,68.10
2018-11-23T01:25:21.109Z,68.30
2018-11-23T01:28:08.927Z,68.40
2018-11-23T01:30:37.399Z,68.10
2018-11-23T01:33:25.127Z,68.90
2018-11-23T01:36:12.891Z,68.90
2018-11-23T01:38:41.437Z,69.10
2018-11-23T01:41:09.999Z,68.70
2018-11-23T01:43:58.012Z,68.70
2018-11-23T01:46:26.827Z,69.10
2018-11-23T01:49:14.510Z,69.40
2018-11-23T01:52:02.277Z,69.30
2018-11-23T01:54:50.046Z,69.20
2018-11-23T02:00:27.763Z,69.50
2018-11-23T02:03:15.819Z,70.00
2018-11-23T02:05:44.387Z,69.90
2018-11-23T02:08:32.425Z,70.00
2018-11-23T02:11:20.362Z,70.00
2018-11-23T02:14:08.094Z,70.10
2018-11-23T02:16:55.825Z,70.00
2018-11-23T02:19:24.441Z,70.50
2018-11-23T02:22:12.173Z,69.90
2018-11-23T02:27:50.969Z,70.10
2018-11-23T02:30:38.451Z,70.80
2018-11-23T02:33:06.901Z,70.70
2018-11-23T02:35:35.330Z,70.30
2018-11-23T02:38:23.191Z,70.80
2018-11-23T02:41:11.251Z,70.50
2018-11-23T02:43:59.034Z,70.80
2018-11-23T02:46:27.674Z,71.10
2018-11-23T02:49:08.374Z,71.10
2018-11-23T02:51:36.705Z,71.30
2018-11-23T02:54:05.210Z,71.00
2018-11-23T02:56:53.415Z,70.90
2018-11-23T02:59:41.223Z,70.80
2018-11-23T03:02:09.731Z,70.80
2018-11-23T03:04:57.468Z,71.10
2018-11-23T03:07:26.228Z,70.80
2018-11-23T03:10:15.090Z,70.60
2018-11-23T03:13:02.847Z,70.80
2018-11-23T03:15:31.384Z,70.80
2018-11-23T03:18:19.322Z,70.80
2018-11-23T03:26:49.605Z,71.00
2018-11-23T03:35:25.345Z,70.90
2018-11-23T03:37:53.788Z,70.90
2018-11-23T03:40:22.258Z,70.80
2018-11-23T03:43:10.043Z,70.70
2018-11-23T03:45:38.471Z,70.70
2018-11-23T03:48:07.297Z,70.80
2018-11-23T03:50:55.032Z,70.70
2018-11-23T03:53:42.875Z,70.50
2018-11-23T03:56:11.346Z,70.60
2018-11-23T04:01:46.744Z,71.80
2018-11-23T04:04:34.564Z,70.90
2018-11-23T04:07:22.589Z,70.80
2018-11-23T04:10:12.142Z,70.90
2018-11-23T04:18:44.833Z,70.90
2018-11-23T04:21:32.559Z,70.90
2018-11-23T04:24:20.403Z,70.90
2018-11-23T04:26:48.977Z,70.80
2018-11-23T04:32:24.748Z,70.40
2018-11-23T04:34:53.346Z,70.40
2018-11-23T04:37:41.270Z,70.20
2018-11-23T04:40:29.115Z,70.40
2018-11-23T04:43:16.883Z,70.30
2018-11-23T04:46:04.849Z,70.30
2018-11-23T04:48:52.662Z,70.50
2018-11-23T04:51:40.403Z,70.50
2018-11-23T04:54:28.182Z,70.50
2018-11-23T04:56:56.603Z,70.60
2018-11-23T04:59:46.261Z,70.40
2018-11-23T05:02:15.261Z,70.50
2018-11-23T05:04:44.144Z,70.40
2018-11-23T05:07:12.470Z,70.40
2018-11-23T05:10:00.615Z,70.60
2018-11-23T05:12:29.379Z,70.70
2018-11-23T05:15:19.305Z,70.80
2018-11-23T05:17:48.857Z,71.20
2018-11-23T05:20:36.658Z,70.80
2018-11-23T05:23:24.500Z,71.00
2018-11-23T05:26:12.502Z,70.70
2018-11-23T05:29:00.569Z,70.90
2018-11-23T05:31:48.772Z,70.80
2018-11-23T05:34:17.757Z,70.80
2018-11-23T05:37:05.546Z,70.80
2018-11-23T05:39:53.620Z,71.20
2018-11-23T05:42:41.893Z,71.20
2018-11-23T05:45:13.024Z,71.20
2018-11-23T05:48:01.085Z,71.10
2018-11-23T05:50:50.235Z,70.80
2018-11-23T05:53:38.239Z,70.80
2018-11-23T05:56:07.198Z,70.80
2018-11-23T05:58:54.993Z,70.80
2018-11-23T06:01:23.508Z,70.90
2018-11-23T06:04:11.257Z,70.70
2018-11-23T06:06:59.019Z,71.00
2018-11-23T06:09:47.296Z,71.10
2018-11-23T06:12:35.084Z,70.90
2018-11-23T06:15:03.917Z,70.90
2018-11-23T06:17:52.048Z,70.60
2018-11-23T06:20:39.890Z,70.80
2018-11-23T06:23:27.955Z,71.00
2018-11-23T06:26:17.260Z,70.70
2018-11-23T06:32:33.146Z,70.80
2018-11-23T06:35:21.005Z,71.30
2018-11-23T06:38:08.759Z,71.20
2018-11-23T06:40:57.243Z,71.00
2018-11-23T06:43:45.251Z,70.90
2018-11-23T06:46:33.026Z,70.80
2018-11-23T06:49:01.585Z,70.60
2018-11-23T06:51:49.341Z,70.30
2018-11-23T06:54:17.977Z,70.20
2018-11-23T06:59:54.546Z,70.30
2018-11-23T07:02:43.999Z,70.50
2018-11-23T07:05:51.177Z,70.50
2018-11-23T07:11:28.789Z,70.30
2018-11-23T07:14:16.612Z,70.00
2018-11-23T07:17:04.355Z,70.10
2018-11-23T07:19:52.704Z,70.20
2018-11-23T07:22:21.137Z,70.10
2018-11-23T07:25:09.995Z,70.20
2018-11-23T07:28:16.516Z,70.40
2018-11-23T07:31:04.333Z,70.60
2018-11-23T07:33:52.374Z,70.50
2018-11-23T07:36:40.097Z,70.30
2018-11-23T07:39:47.534Z,70.40
2018-11-23T07:42:58.080Z,70.30
2018-11-23T07:45:45.907Z,70.50
2018-11-23T07:48:33.674Z,70.50
2018-11-23T07:51:21.445Z,70.70
2018-11-23T07:53:49.789Z,70.90
2018-11-23T07:56:38.206Z,70.60
2018-11-23T07:59:25.594Z,70.50
2018-11-23T08:02:14.207Z,70.80
2018-11-23T08:05:02.173Z,71.00
2018-11-23T08:07:50.236Z,71.10
2018-11-23T08:10:37.367Z,71.10
2018-11-23T08:13:25.507Z,71.10
2018-11-23T08:16:13.234Z,72.00
2018-11-23T08:19:01.002Z,71.60
2018-11-23T08:21:29.521Z,71.90
2018-11-23T08:24:17.511Z,71.60
2018-11-23T08:27:05.417Z,71.70
2018-11-23T08:29:53.369Z,71.60
2018-11-23T08:32:22.113Z,71.60
2018-11-23T08:35:10.107Z,71.80
2018-11-23T08:37:39.127Z,71.60
2018-11-23T08:40:27.564Z,71.60
2018-11-23T08:43:15.455Z,71.60
2018-11-23T08:46:03.320Z,72.00
2018-11-23T08:48:31.715Z,71.70
2018-11-23T08:51:19.584Z,72.10
2018-11-23T08:54:07.353Z,72.30
2018-11-23T08:56:55.657Z,72.20
2018-11-23T08:59:43.413Z,72.20
2018-11-23T09:02:31.342Z,72.10
2018-11-23T09:05:38.358Z,72.30
2018-11-23T09:08:26.330Z,72.00
2018-11-23T09:11:14.127Z,72.70
2018-11-23T09:14:02.144Z,71.90
2018-11-23T09:16:50.957Z,72.00
2018-11-23T09:19:39.083Z,71.70
2018-11-23T09:22:26.968Z,71.90
2018-11-23T09:25:16.660Z,71.90
2018-11-23T09:28:04.553Z,71.80
2018-11-23T09:30:52.654Z,71.70
2018-11-23T09:33:21.499Z,72.00
2018-11-23T09:36:09.862Z,71.90
2018-11-23T09:38:58.298Z,72.30
2018-11-23T09:41:46.189Z,72.10
2018-11-23T09:44:34.181Z,72.20
2018-11-23T09:47:22.337Z,72.00
2018-11-23T09:50:12.412Z,72.00
2018-11-23T09:55:38.420Z,72.10
2018-11-23T09:58:26.336Z,72.00
2018-11-23T10:03:57.156Z,71.90
2018-11-23T10:06:45.097Z,71.60
2018-11-23T10:09:33.097Z,71.90
2018-11-23T10:12:21.873Z,71.80
2018-11-23T10:15:10.860Z,72.00
2018-11-23T10:18:00.392Z,71.30
2018-11-23T10:23:40.460Z,71.60
2018-11-23T10:26:28.661Z,71.10
2018-11-23T10:29:17.342Z,71.00
2018-11-23T10:32:05.463Z,71.30
2018-11-23T10:35:01.090Z,71.30
2018-11-23T10:38:08.771Z,71.40
2018-11-23T10:40:57.046Z,71.40
2018-11-23T10:43:45.246Z,71.60
2018-11-23T10:46:33.527Z,71.30
2018-11-23T10:49:21.742Z,71.20
2018-11-23T10:52:13.081Z,71.10
2018-11-23T10:54:47.747Z,70.80
2018-11-23T10:57:35.937Z,70.70
2018-11-23T11:00:05.098Z,71.10
2018-11-23T11:03:13.364Z,70.70
2018-11-23T11:06:39.789Z,71.10
2018-11-23T11:09:27.745Z,71.00
2018-11-23T11:12:35.283Z,70.50
2018-11-23T11:16:04.734Z,70.30
2018-11-23T11:25:51.495Z,70.60
2018-11-23T11:28:39.547Z,70.60
2018-11-23T11:31:27.983Z,70.80
2018-11-23T11:34:16.053Z,70.50
2018-11-23T11:37:04.125Z,70.30
2018-11-23T11:39:58.367Z,70.80
2018-11-23T11:42:53.040Z,70.50
2018-11-23T11:46:01.148Z,70.40
2018-11-23T11:51:41.544Z,69.80
2018-11-23T11:54:29.717Z,70.10
2018-11-23T11:57:20.080Z,70.20
2018-11-23T12:00:10.284Z,69.10
2018-11-23T12:02:58.052Z,69.50
2018-11-23T12:05:46.452Z,69.80
2018-11-23T12:08:34.419Z,69.90
2018-11-23T12:11:03.317Z,70.40
2018-11-23T12:16:39.195Z,69.50
2018-11-23T12:19:30.333Z,70.10
2018-11-23T12:28:18.665Z,70.60
2018-11-23T12:31:06.590Z,70.00
2018-11-23T12:33:55.073Z,70.90
2018-11-23T12:36:43.423Z,70.80
2018-11-23T12:39:31.299Z,70.90
2018-11-23T12:42:19.266Z,70.00
2018-11-23T12:45:08.132Z,70.00
2018-11-23T12:47:56.241Z,69.90
2018-11-23T12:50:44.747Z,70.40
2018-11-23T12:53:32.987Z,70.00
2018-11-23T13:18:24.976Z,69.40
2018-11-23T13:21:12.808Z,69.00
2018-11-23T13:23:41.312Z,69.00
2018-11-23T13:26:31.707Z,69.00
2018-11-23T13:29:20.979Z,69.10
2018-11-23T13:32:07.975Z,69.30
2018-11-23T13:34:55.744Z,69.80
2018-11-23T13:40:23.577Z,69.70
2018-11-23T13:42:52.705Z,69.80
2018-11-23T13:45:40.750Z,69.10
2018-11-23T13:51:17.243Z,69.10
2018-11-23T13:54:04.789Z,69.10
2018-11-23T13:57:00.170Z,68.10
2018-11-23T13:59:31.852Z,69.10
2018-11-23T14:05:32.652Z,69.10
2018-11-23T14:17:46.698Z,67.20
2018-11-23T14:49:08.189Z,69.00
2018-11-23T14:58:05.393Z,68.90
2018-11-23T15:04:13.972Z,69.30
2018-11-23T15:07:12.106Z,69.40
2018-11-23T15:09:59.993Z,69.40
2018-11-23T15:12:52.412Z,69.40
2018-11-23T15:19:19.899Z,69.50
2018-11-23T15:22:15.553Z,68.90
2018-11-23T15:25:22.905Z,68.60
2018-11-23T15:28:32.621Z,69.10
2018-11-23T15:31:24.459Z,68.80
2018-11-23T15:34:13.088Z,68.70
2018-11-23T15:39:52.959Z,68.60
2018-11-23T15:42:41.330Z,68.40
2018-11-23T15:45:14.433Z,68.40
2018-11-23T15:51:29.206Z,68.60
2018-11-23T15:59:23.657Z,68.80
2018-11-23T16:03:50.941Z,68.70
2018-11-23T16:09:44.956Z,68.80
2018-11-23T16:18:45.087Z,68.90
2018-11-23T16:25:02.034Z,69.00
2018-11-23T16:43:58.258Z,69.60
2018-11-23T16:46:47.992Z,69.50
2018-11-23T16:50:15.110Z,69.70
2018-11-23T16:56:25.892Z,69.60
2018-11-23T17:02:06.836Z,70.30
2018-11-23T17:08:30.919Z,69.70
2018-11-23T17:11:19.163Z,69.60
2018-11-23T17:17:15.031Z,69.40
2018-11-23T17:20:04.145Z,69.50
2018-11-23T17:22:56.542Z,69.50
2018-11-23T17:26:23.399Z,69.60
2018-11-23T17:29:36.077Z,69.30
2018-11-23T17:32:28.050Z,69.30
2018-11-23T17:48:26.789Z,69.50
2018-11-23T17:51:15.312Z,69.50
2018-11-23T17:54:03.175Z,69.60
2018-11-23T17:56:51.853Z,69.40
2018-11-23T17:59:59.256Z,69.70
2018-11-23T18:03:01.853Z,69.50
2018-11-23T18:05:54.267Z,69.50
2018-11-23T18:08:22.605Z,69.40
2018-11-23T18:10:51.479Z,69.60
2018-11-23T18:20:02.173Z,69.40
2018-11-23T18:35:25.480Z,69.40
2018-11-23T18:38:14.252Z,69.60
2018-11-23T18:44:24.795Z,70.50
2018-11-23T18:47:12.954Z,69.50
2018-11-23T18:49:57.908Z,69.60
2018-11-23T18:56:35.654Z,69.70
2018-11-23T19:06:22.057Z,70.00
2018-11-23T19:09:10.543Z,70.10
2018-11-23T19:18:56.219Z,70.40
2018-11-23T19:21:44.675Z,70.60
2018-11-23T19:27:29.777Z,70.40
2018-11-23T19:30:18.326Z,70.50
2018-11-23T19:33:06.605Z,70.50
2018-11-23T19:36:21.967Z,70.60
2018-11-23T19:39:39.308Z,70.40
2018-11-23T19:42:40.799Z,70.70
2018-11-23T19:45:19.018Z,70.40
2018-11-23T19:48:08.773Z,70.20
2018-11-23T19:50:56.092Z,70.60
2018-11-23T19:53:44.403Z,70.40
2018-11-23T19:56:51.776Z,70.40
2018-11-23T19:59:57.090Z,70.40
2018-11-23T20:02:45.510Z,70.20
2018-11-23T20:05:33.787Z,70.90
2018-11-23T20:08:41.358Z,70.50
2018-11-23T20:14:17.622Z,70.40
2018-11-23T20:17:08.586Z,71.00
2018-11-23T20:19:56.660Z,70.30
2018-11-23T20:22:48.668Z,70.40
2018-11-23T20:25:36.639Z,70.20
2018-11-23T20:28:24.669Z,70.30
2018-11-23T20:31:12.836Z,70.40
2018-11-23T20:34:00.819Z,70.60
2018-11-23T20:36:49.731Z,70.70
2018-11-23T20:39:38.060Z,70.60
2018-11-23T20:45:20.322Z,70.80
2018-11-23T20:48:08.488Z,71.40
2018-11-23T20:50:56.405Z,71.00
2018-11-23T20:59:29.373Z,71.50
2018-11-23T21:02:17.256Z,70.70
2018-11-23T21:05:06.258Z,70.70
2018-11-23T21:07:54.383Z,71.00
2018-11-23T21:10:42.523Z,71.20
2018-11-23T21:13:10.970Z,70.90
2018-11-23T21:15:40.151Z,71.10
2018-11-23T21:18:13.432Z,71.10
2018-11-23T21:21:01.551Z,71.30
2018-11-23T21:23:29.975Z,71.20
2018-11-23T21:26:18.343Z,71.10
2018-11-23T21:28:47.361Z,70.90
2018-11-23T21:31:16.322Z,71.10
2018-11-23T21:34:04.888Z,71.60
2018-11-23T21:36:52.887Z,71.00
2018-11-23T21:39:40.916Z,71.00
2018-11-23T21:42:28.950Z,70.60
2018-11-23T21:45:17.549Z,71.50
2018-11-23T21:48:05.382Z,70.90
2018-11-23T21:50:54.565Z,70.90
2018-11-23T21:53:42.640Z,71.20
2018-11-23T21:56:11.044Z,71.30
2018-11-23T21:58:58.986Z,71.20
2018-11-23T22:01:49.509Z,71.20
2018-11-23T22:04:37.385Z,72.00
2018-11-23T22:07:25.935Z,71.00
2018-11-23T22:10:33.246Z,71.30
2018-11-23T22:13:21.329Z,71.80
2018-11-23T22:16:09.109Z,71.50
2018-11-23T22:18:38.172Z,72.10
2018-11-23T22:21:26.108Z,72.00
2018-11-23T22:24:14.582Z,71.60
2018-11-23T22:27:02.442Z,71.60
2018-11-23T22:29:31.004Z,71.40
2018-11-23T22:32:19.103Z,71.30
2018-11-23T22:35:09.847Z,71.70
2018-11-23T22:38:16.069Z,71.80
2018-11-23T22:41:04.426Z,71.40
2018-11-23T22:43:35.878Z,71.70
2018-11-23T22:46:24.864Z,71.50
2018-11-23T22:49:13.781Z,71.60
2018-11-23T22:52:01.706Z,71.90
2018-11-23T22:54:50.088Z,71.70
2018-11-23T22:57:38.052Z,71.30
2018-11-23T23:00:45.996Z,71.70
2018-11-23T23:03:33.790Z,71.60
2018-11-23T23:06:21.895Z,71.40
2018-11-23T23:09:10.023Z,71.10
2018-11-23T23:11:38.772Z,72.20
2018-11-23T23:14:26.861Z,71.80
2018-11-23T23:20:12.329Z,71.80
2018-11-23T23:23:00.125Z,72.10
2018-11-23T23:25:28.814Z,72.30
2018-11-23T23:28:21.875Z,72.10
2018-11-23T23:31:09.617Z,72.30
2018-11-23T23:33:57.818Z,72.10
2018-11-23T23:36:46.887Z,72.30
2018-11-23T23:39:16.187Z,72.00
2018-11-23T23:42:14.248Z,72.00
2018-11-23T23:45:02.246Z,71.80
2018-11-23T23:47:50.386Z,72.30
2018-11-23T23:50:38.336Z,72.10
2018-11-23T23:53:26.165Z,72.20
2018-11-23T23:55:54.625Z,72.10
2018-11-23T23:58:42.332Z,72.50
